Argyle, Wisconsin
Current Conditions -  °F | °C
As of 5:55 PM on Sunday 23 Nov 2014 (Local Time) from KEFT Reporting Station
Drizzle Drizzle  
Wind Chill: 42°   Ceiling: 300
Heat Index: 46°   Visibility: 1.7mi
Dew Point: 46°   Wind: 8mph
Humidity: 100%   Direction: 110°ESE
Pressure: 29.33"   Gusts: NA
Location:  42.7°N, 89.87°W
Report Text: KEFT 232355Z AUTO 11007KT 1 3/4SM DZ OVC003 08/08 A2933 RMK AO2 P0001
Loading
Personal Weather Stations






























Interactive Weather Map New forecast layout! Learn more

10-Day Weather Forecast

Advertisements
Track Severe Weather on mobile